Terminal Aerodrome Forecast
Issued by NWS Pueblo, CO

Home | Current Version | Previous Version | Text Only | Print | Product List | Glossary On
Versions: 1 2 3 4 5 6 7 8 9 10 11 12 13 14 15 16 17 18 19 20 21 22 23 24 25 26 27 28
000
FTUS45 KPUB 242328
TAFALS
TAF
KALS 242328Z 2500/2524 32006KT P6SM VCTS FEW050CB SCT100
      TEMPO 2500/2502 VRB15G25KT SCT040CB BKN060
     FM250200 27010KT P6SM SCT090 SCT130
     FM250400 VRB06KT P6SM SCT250
     FM251500 20008KT P6SM SCT120 SCT250
     FM251800 22014KT P6SM VCTS SCT060CB BKN150=

USA.gov is the U.S. government's official web portal to all federal, state and local government web resources and services.